Terminal Aerodrome Forecast
Issued by NWS

Home | Current Version | Previous Version | Text Only | Print | Product List | Glossary On
Versions: 1 2 3 4 5 6 7 8 9 10 11 12 13 14 15 16
000
FTUS44 KEPZ 221726
TAFTCS
TAF
KTCS 221726Z 2218/2318 17007KT P6SM FEW110 FEW250
     FM222100 30010G18KT P6SM FEW110 FEW250
     FM230300 31012G23KT P6SM SCT100
     FM231300 02011KT P6SM SCT100=

USA.gov is the U.S. government's official web portal to all federal, state and local government web resources and services.